This is the latest recevied weather packets stored in our database for station/object DL6MAA-11. If no packets are shown the sender has not sent any weather packets the latest 10 day(s).
| Time | Temp. | Humidity | Pressure | Rain* | Wind** | Luminosity | Snow |
|---|---|---|---|---|---|---|---|
| 1778081222 | 16.67° C | 62% | 1003 hPa | 0.25 mm | - | 37 W/m² | - |
| 1778080906 | 17.78° C | 59% | 1003 hPa | 0.25 mm | - | 90 W/m² | - |
| 1778080613 | 18.33° C | 60% | 1003 hPa | 0.25 mm | - | 371 W/m² | - |
| 1778080313 | 18.33° C | 59% | 1003.1 hPa | 0.25 mm | - | 374 W/m² | - |
| 1778080010 | 18.33° C | 61% | 1003.1 hPa | 0.25 mm | - | 364 W/m² | - |
| 1778079715 | 17.78° C | 61% | 1003.1 hPa | 0.25 mm | - | 367 W/m² | - |
| 1778079423 | 17.78° C | 61% | 1002.3 hPa | 0.25 mm | - | 388 W/m² | - |
| 1778079108 | 17.22° C | 65% | 1002.3 hPa | 0.25 mm | - | 485 W/m² | - |
| 1778078815 | 16.67° C | 63% | 1002.3 hPa | 0.25 mm | - | 151 W/m² | - |
| 1778078521 | 17.22° C | 63% | 1002.4 hPa | 0.25 mm | - | 497 W/m² | - |
| 1778078226 | 16.67° C | 65% | 1002.4 hPa | 0.25 mm | - | 283 W/m² | - |
| 1778077920 | 16.11° C | 67% | 1002.4 hPa | 0.25 mm | - | 425 W/m² | - |
| 1778077613 | 15.56° C | 65% | 1002.9 hPa | 0.25 mm | - | 327 W/m² | - |
| 1778077316 | 15.56° C | 64% | 1002.9 hPa | 0.25 mm | - | 172 W/m² | - |
| 1778077017 | 15.56° C | 65% | 1002.9 hPa | 0.25 mm | - | 306 W/m² | - |
| 1778076720 | 15° C | 66% | 1002.7 hPa | 0.25 mm | - | 202 W/m² | - |
| 1778076421 | 15° C | 65% | 1002.7 hPa | 0.25 mm | - | 123 W/m² | - |
| 1778076105 | 15.56° C | 65% | 1002.7 hPa | 0.25 mm | - | 174 W/m² | - |
| 1778075810 | 15.56° C | 68% | 1003.4 hPa | 0.25 mm | - | 397 W/m² | - |
| 1778075515 | 15° C | 72% | 1003.4 hPa | 0.25 mm | - | 570 W/m² | - |
| 1778075216 | 13.89° C | 73% | 1003.4 hPa | 0.25 mm | - | 279 W/m² | - |
| 1778074308 | 15° C | 67% | 1003.3 hPa | 0.25 mm | - | 18 W/m² | - |
| 1778074011 | 15.56° C | 66% | 1002.7 hPa | 0.25 mm | - | 14 W/m² | - |
| 1778073714 | 15.56° C | 67% | 1002.7 hPa | 0.25 mm | - | 14 W/m² | - |
| 1778073414 | 15.56° C | 67% | 1002.7 hPa | 0.25 mm | - | 12 W/m² | - |
* Rain since midnight (hover to see other rain measurements)
** Current wind speed in m/s (hover to see current wind gust speed)